Time;durP1;ratioP1;P1;durP2;ratioP2;P2;SDS_P1;SDS_P2;PMS_P1;PMS_P2;Temp;Humidity;BMP_temperature;BMP_pressure;BME280_temperature;BME280_humidity;BME280_pressure;Samples;Min_cycle;Max_cycle;Signal;HPM_P1;HPM_P2
2020/12/06 00:01:43;;;;;;;62.43;42.07;;;;;;;5.45;78.87;98398.77;125152;1098;65242;-82
2020/12/06 00:04:10;;;;;;;61.15;38.40;;;;;;;5.50;78.40;98402.01;125233;1098;65227;-82
2020/12/06 00:06:37;;;;;;;58.33;37.70;;;;;;;5.53;78.62;98400.10;125263;1098;65125;-81
2020/12/06 00:09:06;;;;;;;55.67;37.53;;;;;;;5.54;78.67;98407.96;125183;1098;65188;-82
2020/12/06 00:11:33;;;;;;;56.90;37.33;;;;;;;5.55;78.52;98391.16;125199;1098;65221;-79
2020/12/06 00:14:00;;;;;;;54.73;37.13;;;;;;;5.58;78.49;98403.34;125241;1098;65110;-79
2020/12/06 00:16:28;;;;;;;55.27;36.27;;;;;;;5.57;78.78;98401.66;125244;1098;65204;-81
2020/12/06 00:18:55;;;;;;;59.07;38.83;;;;;;;5.54;78.61;98407.11;125194;1099;65217;-78
2020/12/06 00:21:22;;;;;;;59.37;39.30;;;;;;;5.49;78.52;98412.65;125221;1098;65147;-81
2020/12/06 00:23:49;;;;;;;58.30;38.37;;;;;;;5.45;78.32;98408.45;125280;1098;65198;-79
2020/12/06 00:26:24;;;;;;;53.43;35.33;;;;;;;5.42;78.63;98404.19;125208;1098;65153;-79
2020/12/06 00:28:51;;;;;;;50.60;37.20;;;;;;;5.40;78.85;98399.96;125169;1098;65472;-79
2020/12/06 00:31:18;;;;;;;57.17;39.67;;;;;;;5.38;78.58;98407.11;125207;1098;65509;-79
2020/12/06 00:33:45;;;;;;;57.57;37.43;;;;;;;5.37;78.84;98402.75;125183;1098;65118;-79
2020/12/06 00:36:13;;;;;;;55.20;39.80;;;;;;;5.35;78.85;98405.49;125240;1098;65140;-79
2020/12/06 00:38:40;;;;;;;61.90;42.00;;;;;;;5.32;78.71;98407.43;124829;1099;65238;-79
2020/12/06 00:41:11;;;;;;;61.17;43.07;;;;;;;5.26;78.62;98387.48;124758;1098;65264;-79
2020/12/06 00:43:38;;;;;;;62.97;42.80;;;;;;;5.19;78.79;98402.84;125271;1098;65151;-80
2020/12/06 00:46:05;;;;;;;54.00;37.47;;;;;;;5.18;79.25;98406.40;124826;1100;65192;-81
2020/12/06 00:48:31;;;;;;;49.27;34.47;;;;;;;5.17;78.96;98403.86;125204;1098;65163;-79
2020/12/06 00:50:58;;;;;;;58.27;39.03;;;;;;;5.16;78.85;98410.06;125232;1098;65178;-79
2020/12/06 00:53:25;;;;;;;54.67;37.53;;;;;;;5.13;78.74;98423.44;124800;1100;65239;-79
2020/12/06 00:55:52;;;;;;;58.83;40.03;;;;;;;5.13;78.91;98428.72;125129;1098;65188;-79
2020/12/06 00:58:20;;;;;;;58.00;40.00;;;;;;;5.12;79.45;98429.67;125149;1098;65245;-79
2020/12/06 01:00:46;;;;;;;65.70;44.03;;;;;;;5.11;79.53;98431.46;125216;1098;65210;-80
2020/12/06 01:03:12;;;;;;;66.13;44.83;;;;;;;5.11;79.23;98430.58;125257;1098;65127;-81
2020/12/06 01:05:39;;;;;;;61.20;43.73;;;;;;;5.09;79.39;98429.84;125297;1098;65307;-80
2020/12/06 01:08:06;;;;;;;60.95;41.60;;;;;;;5.07;79.30;98411.42;125248;1099;65172;-80
2020/12/06 01:10:33;;;;;;;52.05;38.70;;;;;;;5.05;79.27;98429.13;125198;1098;65524;-81
2020/12/06 01:12:59;;;;;;;52.93;36.90;;;;;;;5.05;79.77;98435.29;125298;1099;65521;-80
2020/12/06 01:15:26;;;;;;;52.10;35.03;;;;;;;5.07;79.71;98435.19;125251;1098;65144;-81
2020/12/06 01:17:53;;;;;;;53.77;37.03;;;;;;;5.11;80.12;98439.38;125166;1098;65096;-80
2020/12/06 01:20:20;;;;;;;53.13;37.27;;;;;;;5.16;79.87;98433.83;125345;1098;65213;-80
2020/12/06 01:22:46;;;;;;;54.07;40.67;;;;;;;5.18;80.02;98427.53;124855;1098;65239;-80
2020/12/06 01:25:13;;;;;;;49.60;33.57;;;;;;;5.20;79.78;98428.31;124876;1100;65166;-82
2020/12/06 01:27:39;;;;;;;48.00;34.97;;;;;;;5.25;80.19;98422.78;125174;1098;65237;-80
2020/12/06 01:30:06;;;;;;;46.53;32.53;;;;;;;5.26;80.18;98422.68;125145;1098;65338;-80
2020/12/06 01:32:33;;;;;;;49.60;35.63;;;;;;;5.27;80.21;98405.91;125198;1098;65144;-80
2020/12/06 01:35:03;;;;;;;53.87;37.87;;;;;;;5.28;80.23;98410.25;125195;1098;65200;-81
2020/12/06 01:37:30;;;;;;;53.43;38.33;;;;;;;5.24;79.89;98408.73;125179;1098;65163;-81
2020/12/06 01:39:56;;;;;;;59.95;40.60;;;;;;;5.20;80.15;98404.53;124822;1099;65150;-81
2020/12/06 01:42:23;;;;;;;52.20;37.53;;;;;;;5.17;80.00;98419.70;125150;1099;65316;-80
2020/12/06 01:45:00;;;;;;;59.27;38.47;;;;;;;5.11;80.23;98409.45;125302;1098;65521;-81
2020/12/06 01:47:27;;;;;;;60.27;42.00;;;;;;;5.08;80.03;98413.11;125335;1098;65150;-81
2020/12/06 01:49:57;;;;;;;56.53;39.87;;;;;;;5.09;80.25;98403.42;125255;1098;65274;-81
2020/12/06 01:52:26;;;;;;;;;;;;;;;5.05;80.30;98408.87;124933;1100;65137;-81
2020/12/06 01:54:53;;;;;;;60.33;41.13;;;;;;;5.01;80.33;98406.48;124900;1100;65147;-80
2020/12/06 01:57:19;;;;;;;63.63;44.70;;;;;;;4.97;80.41;98399.64;125278;1098;65172;-80
2020/12/06 01:59:46;;;;;;;63.70;43.25;;;;;;;4.93;80.34;98409.52;125242;1099;65111;-80
2020/12/06 02:02:14;;;;;;;67.93;44.10;;;;;;;4.86;80.32;98400.22;124853;1098;65163;-81
2020/12/06 02:04:42;;;;;;;58.30;41.70;;;;;;;4.81;80.88;98392.53;125338;1099;65095;-81
2020/12/06 02:07:09;;;;;;;56.23;40.43;;;;;;;4.82;80.53;98396.90;125254;1098;65252;-80
2020/12/06 02:09:35;;;;;;;61.70;42.23;;;;;;;4.81;80.92;98402.25;125221;1098;65172;-81
2020/12/06 02:12:08;;;;;;;59.85;41.50;;;;;;;4.81;81.09;98394.33;125212;1098;65204;-80
2020/12/06 02:14:35;;;;;;;58.20;39.73;;;;;;;4.82;81.39;98383.70;125228;1098;65153;-81
2020/12/06 02:17:02;;;;;;;57.07;38.83;;;;;;;4.83;81.22;98393.31;125223;1098;65223;-80
2020/12/06 02:19:29;;;;;;;58.30;40.90;;;;;;;4.82;81.05;98394.26;125338;1098;65188;-81
2020/12/06 02:21:55;;;;;;;49.93;34.23;;;;;;;4.82;81.62;98393.41;124961;1099;65149;-80
2020/12/06 02:24:22;;;;;;;46.47;32.20;;;;;;;4.86;81.13;98388.81;125316;1098;65152;-80
2020/12/06 02:26:50;;;;;;;50.25;33.75;;;;;;;4.89;81.61;98389.48;125212;1098;65134;-81
2020/12/06 02:29:18;;;;;;;45.93;30.87;;;;;;;4.92;81.27;98385.83;125308;1098;65186;-81
2020/12/06 02:31:45;;;;;;;45.10;33.00;;;;;;;4.92;81.39;98380.55;125332;1098;65258;-80
2020/12/06 02:34:12;;;;;;;43.13;31.57;;;;;;;4.93;81.51;98385.77;125276;1098;65218;-80
2020/12/06 02:36:39;;;;;;;46.93;33.07;;;;;;;4.93;81.73;98385.77;125218;1098;65319;-80
2020/12/06 02:39:08;;;;;;;49.80;34.57;;;;;;;4.93;81.36;98391.05;125264;1098;65232;-80
2020/12/06 02:41:35;;;;;;;52.27;34.90;;;;;;;4.91;81.51;98384.14;125224;1098;65131;-80
2020/12/06 02:44:03;;;;;;;49.53;34.07;;;;;;;4.89;81.48;98389.48;125297;1098;65194;-80
2020/12/06 02:46:30;;;;;;;44.70;33.17;;;;;;;4.86;81.18;98391.45;125411;1099;65144;-80
2020/12/06 02:48:57;;;;;;;52.33;37.83;;;;;;;4.85;81.57;98395.88;125338;1098;65226;-80
2020/12/06 02:51:23;;;;;;;54.13;38.17;;;;;;;4.83;81.60;98381.91;124940;1099;65221;-80
2020/12/06 02:53:50;;;;;;;52.40;38.30;;;;;;;4.81;81.43;98394.33;125347;1098;65155;-80
2020/12/06 02:56:16;;;;;;;58.33;41.27;;;;;;;4.78;81.45;98392.70;125247;1098;65227;-80
2020/12/06 02:58:43;;;;;;;56.37;40.73;;;;;;;4.73;81.31;98392.09;125252;1098;65223;-80
2020/12/06 03:01:09;;;;;;;56.35;38.70;;;;;;;4.68;81.24;98403.83;125252;1098;65179;-80
2020/12/06 03:03:37;;;;;;;52.40;38.30;;;;;;;4.63;81.59;98398.78;125250;1098;65259;-81
2020/12/06 03:06:04;;;;;;;52.03;36.73;;;;;;;4.60;81.87;98401.59;125304;1098;65117;-79
2020/12/06 03:08:31;;;;;;;50.53;35.37;;;;;;;4.60;81.50;98396.31;125249;1098;65310;-80
2020/12/06 03:10:57;;;;;;;54.23;37.53;;;;;;;4.59;81.85;98406.02;125206;1098;65139;-80
2020/12/06 03:13:24;;;;;;;55.00;38.85;;;;;;;4.61;81.90;98398.88;125231;1098;65172;-80
2020/12/06 03:15:50;;;;;;;59.87;40.87;;;;;;;4.60;81.52;98401.59;124877;1100;65150;-79
2020/12/06 03:18:17;;;;;;;54.90;40.33;;;;;;;4.57;82.13;98409.67;125265;1098;65150;-80
2020/12/06 03:20:43;;;;;;;54.17;39.43;;;;;;;4.54;82.05;98399.28;125250;1098;65380;-80
2020/12/06 03:23:09;;;;;;;51.63;36.93;;;;;;;4.52;82.18;98401.98;125229;1098;65140;-79
2020/12/06 03:25:36;;;;;;;56.57;36.60;;;;;;;4.51;81.91;98410.00;125232;1098;65176;-80
2020/12/06 03:28:02;;;;;;;49.57;35.23;;;;;;;4.50;82.31;98403.88;125211;1098;65294;-81
2020/12/06 03:30:29;;;;;;;49.27;34.50;;;;;;;4.49;81.96;98404.79;125312;1098;65154;-80
2020/12/06 03:32:55;;;;;;;51.67;36.00;;;;;;;4.48;82.07;98405.73;124875;1098;65133;-80
2020/12/06 03:35:21;;;;;;;50.47;34.47;;;;;;;4.46;82.66;98399.67;124850;1099;65585;-81
2020/12/06 03:37:48;;;;;;;49.27;34.23;;;;;;;4.45;82.14;98399.74;125322;1098;65130;-81
2020/12/06 03:40:16;;;;;;;47.70;33.37;;;;;;;4.45;82.44;98397.10;125296;1098;65152;-81
2020/12/06 03:42:42;;;;;;;49.20;34.80;;;;;;;4.44;82.66;98403.32;125280;1098;65128;-80
2020/12/06 03:45:08;;;;;;;45.97;32.40;;;;;;;4.48;82.74;98389.05;125221;1098;65198;-81
2020/12/06 03:47:35;;;;;;;45.80;32.95;;;;;;;4.50;82.74;98385.41;125260;1098;65216;-80
2020/12/06 03:50:01;;;;;;;45.30;32.37;;;;;;;4.53;82.76;98394.91;125203;1098;65233;-80
2020/12/06 03:52:28;;;;;;;49.43;35.13;;;;;;;4.56;83.00;98395.63;124913;1098;65144;-80
2020/12/06 03:54:54;;;;;;;48.45;32.55;;;;;;;4.57;83.04;98394.69;124862;1100;65137;-80
2020/12/06 03:57:21;;;;;;;46.40;31.60;;;;;;;4.59;82.68;98398.11;125234;1100;65591;-80
2020/12/06 03:59:47;;;;;;;40.93;29.97;;;;;;;4.60;83.30;98399.80;124886;1098;65227;-80
2020/12/06 04:02:13;;;;;;;41.57;30.53;;;;;;;4.67;83.20;98404.78;125276;1098;65224;-80
2020/12/06 04:04:40;;;;;;;40.23;29.03;;;;;;;4.69;82.85;98403.77;125216;1098;65223;-80
2020/12/06 04:07:07;;;;;;;44.10;31.40;;;;;;;4.67;82.56;98404.78;125214;1098;65175;-81
2020/12/06 04:09:34;;;;;;;41.67;30.83;;;;;;;4.59;82.33;98406.02;125183;1098;65277;-80
2020/12/06 04:12:00;;;;;;;41.93;30.37;;;;;;;4.51;82.40;98410.00;125244;1098;65287;-80
2020/12/06 04:14:27;;;;;;;45.57;31.63;;;;;;;4.42;83.11;98390.20;125269;1098;65240;-80
2020/12/06 04:16:53;;;;;;;46.20;31.63;;;;;;;4.35;82.72;98408.14;124854;1099;65189;-80
2020/12/06 04:19:19;;;;;;;40.53;29.17;;;;;;;4.30;83.38;98396.12;125249;1098;65141;-79
2020/12/06 04:21:46;;;;;;;43.40;31.40;;;;;;;4.27;83.20;98410.32;125193;1098;65303;-80
2020/12/06 04:24:12;;;;;;;38.95;28.05;;;;;;;4.25;82.87;98401.63;124808;1100;65214;-80
2020/12/06 04:26:39;;;;;;;40.57;27.63;;;;;;;4.23;83.04;98400.84;125190;1098;65348;-80
2020/12/06 04:29:06;;;;;;;35.40;25.25;;;;;;;4.27;83.08;98397.13;125180;1098;65621;-80
2020/12/06 04:31:32;;;;;;;34.60;25.87;;;;;;;4.31;83.70;98408.37;125146;1098;65070;-80
2020/12/06 04:33:58;;;;;;;41.47;29.13;;;;;;;4.31;83.40;98398.66;125213;1098;65281;-80
2020/12/06 04:36:25;;;;;;;39.47;29.50;;;;;;;4.35;83.22;98402.02;125240;1098;65204;-80
2020/12/06 04:38:51;;;;;;;40.47;28.50;;;;;;;4.32;83.42;98404.82;124785;1100;65214;-80
2020/12/06 04:41:18;;;;;;;42.30;28.95;;;;;;;4.29;83.67;98404.95;125200;1099;65098;-80
2020/12/06 04:43:44;;;;;;;40.50;28.97;;;;;;;4.29;83.62;98412.86;125138;1100;66409;-80
2020/12/06 04:46:11;;;;;;;37.10;28.77;;;;;;;4.28;83.37;98412.02;124808;1099;65210;-80
2020/12/06 04:48:56;;;;;;;41.53;29.70;;;;;;;4.29;83.24;98420.77;125174;1098;65168;-80
2020/12/06 04:51:43;;;;;;;40.47;29.17;;;;;;;4.28;83.57;98408.53;125231;1098;65143;-80
2020/12/06 04:54:11;;;;;;;42.60;30.70;;;;;;;4.30;83.54;98410.16;124791;1100;65234;-80
2020/12/06 04:56:39;;;;;;;38.87;28.57;;;;;;;4.33;84.28;98403.88;125176;1100;65149;-80
2020/12/06 04:59:06;;;;;;;40.23;27.50;;;;;;;4.35;83.77;98410.78;125191;1098;65230;-80
2020/12/06 05:01:35;;;;;;;39.00;28.30;;;;;;;4.37;83.82;98408.05;125190;1098;65127;-80
2020/12/06 05:04:13;;;;;;;38.00;27.17;;;;;;;4.40;84.24;98400.00;125336;1098;65141;-80
2020/12/06 05:06:42;;;;;;;36.13;26.63;;;;;;;4.44;84.28;98401.53;125319;1098;65124;-81
2020/12/06 05:09:15;;;;;;;37.20;25.90;;;;;;;4.48;84.08;98418.92;125372;1099;65141;-80
2020/12/06 05:11:44;;;;;;;31.65;22.90;;;;;;;4.52;84.50;98419.61;125346;1098;65181;-80
2020/12/06 05:14:10;;;;;;;32.80;23.90;;;;;;;4.57;84.23;98420.23;125362;1099;65188;-80
2020/12/06 05:16:38;;;;;;;38.37;26.73;;;;;;;4.58;83.82;98401.69;125348;1099;65173;-80
2020/12/06 05:19:06;;;;;;;36.85;26.60;;;;;;;4.64;84.47;98404.94;125208;1098;65233;-80
2020/12/06 05:21:44;;;;;;;33.87;26.23;;;;;;;4.65;84.03;98410.13;125206;1099;65258;-80
2020/12/06 05:24:11;;;;;;;32.27;23.07;;;;;;;4.66;84.00;98419.77;125373;1099;65194;-80
2020/12/06 05:26:37;;;;;;;31.53;23.27;;;;;;;4.69;84.29;98405.55;125253;1098;65144;-80
2020/12/06 05:29:04;;;;;;;29.70;21.57;;;;;;;4.72;84.56;98413.31;125246;1098;65154;-80
2020/12/06 05:31:31;;;;;;;29.30;22.00;;;;;;;4.77;83.83;98416.56;125252;1098;65240;-80
2020/12/06 05:33:57;;;;;;;31.17;23.13;;;;;;;4.79;83.99;98426.11;125282;1098;65270;-80
2020/12/06 05:36:24;;;;;;;33.13;24.17;;;;;;;4.79;84.22;98419.95;125235;1098;65543;-80
2020/12/06 05:38:51;;;;;;;34.93;24.10;;;;;;;4.79;84.81;98420.83;125238;1098;65233;-80
2020/12/06 05:41:17;;;;;;;33.40;23.40;;;;;;;4.79;84.11;98423.47;125173;1098;65144;-81
2020/12/06 05:43:44;;;;;;;35.70;25.43;;;;;;;4.80;84.36;98417.23;125260;1098;65123;-80
2020/12/06 05:46:14;;;;;;;31.47;23.17;;;;;;;4.79;84.45;98431.38;125174;1099;65232;-80
2020/12/06 05:48:42;;;;;;;35.17;25.80;;;;;;;4.81;84.42;98418.09;125289;1098;65188;-81
2020/12/06 05:51:10;;;;;;;33.77;23.97;;;;;;;4.83;84.59;98422.36;125369;1098;65143;-79
2020/12/06 05:53:37;;;;;;;34.00;24.83;;;;;;;4.84;84.77;98423.20;124774;1099;65127;-81
2020/12/06 05:56:19;;;;;;;35.20;24.73;;;;;;;4.86;84.82;98415.21;125175;1098;65137;-79
2020/12/06 05:58:48;;;;;;;35.10;24.00;;;;;;;4.85;84.70;98417.00;125128;1098;65249;-79
2020/12/06 06:01:16;;;;;;;34.23;23.67;;;;;;;4.84;84.70;98410.00;124823;1100;65131;-79
2020/12/06 06:03:46;;;;;;;36.00;25.45;;;;;;;4.83;84.62;98401.23;125274;1098;65172;-79
2020/12/06 06:06:18;;;;;;;33.20;23.40;;;;;;;4.82;84.17;98403.97;125165;1100;65138;-79
2020/12/06 06:08:49;;;;;;;31.33;24.90;;;;;;;4.82;84.59;98402.18;124814;1100;65150;-79
2020/12/06 06:11:21;;;;;;;35.90;23.70;;;;;;;4.84;84.55;98392.40;125199;1098;65268;-79
2020/12/06 06:13:58;;;;;;;33.10;23.93;;;;;;;4.89;84.99;98407.13;125298;1098;65268;-79
2020/12/06 06:16:27;;;;;;;38.03;24.40;;;;;;;4.93;84.85;98417.45;125251;1098;65169;-79
2020/12/06 06:18:56;;;;;;;35.63;24.87;;;;;;;4.94;84.98;98418.30;125271;1099;65178;-79
2020/12/06 06:21:30;;;;;;;35.63;25.40;;;;;;;4.96;84.45;98427.00;125179;1099;65083;-82
2020/12/06 06:24:00;;;;;;;38.17;26.00;;;;;;;4.95;84.68;98419.98;125167;1098;65203;-81
2020/12/06 06:26:32;;;;;;;34.45;24.70;;;;;;;4.93;84.59;98422.73;124831;1098;65239;-79
2020/12/06 06:28:58;;;;;;;33.33;26.03;;;;;;;4.93;84.55;98420.09;124857;1099;65143;-81
2020/12/06 06:31:28;;;;;;;66.70;45.03;;;;;;;4.94;84.66;98432.34;125239;1098;65191;-82
2020/12/06 06:33:54;;;;;;;66.40;42.33;;;;;;;4.92;84.79;98428.92;124876;1100;65230;-81
2020/12/06 06:36:23;;;;;;;50.73;35.37;;;;;;;4.94;84.93;98429.70;125250;1098;65144;-81
2020/12/06 06:38:51;;;;;;;72.30;45.17;;;;;;;4.95;84.53;98426.15;125221;1098;65230;-81
2020/12/06 06:41:18;;;;;;;43.87;31.47;;;;;;;4.95;84.51;98425.27;125230;1098;65174;-81
2020/12/06 06:43:46;;;;;;;36.70;28.35;;;;;;;4.95;84.76;98423.51;125250;1098;65249;-81
2020/12/06 06:46:17;;;;;;;34.10;26.67;;;;;;;4.98;84.77;98419.85;125172;1098;65181;-78
2020/12/06 06:48:49;;;;;;;33.27;24.17;;;;;;;5.01;84.41;98435.52;125170;1098;65172;-79
2020/12/06 06:51:20;;;;;;;31.30;24.23;;;;;;;5.04;84.50;98433.56;125263;1098;65250;-79
2020/12/06 06:53:48;;;;;;;36.60;27.83;;;;;;;5.11;84.73;98430.58;125167;1099;65166;-80
2020/12/06 06:56:19;;;;;;;32.20;23.53;;;;;;;5.18;84.48;98431.97;124821;1098;65073;-80
2020/12/06 06:58:47;;;;;;;32.10;22.67;;;;;;;5.23;84.68;98433.42;125323;1099;65121;-80
2020/12/06 07:01:22;;;;;;;33.17;23.90;;;;;;;5.27;84.03;98436.77;124880;1099;65176;-80
2020/12/06 07:03:55;;;;;;;31.50;23.97;;;;;;;5.32;84.10;98444.42;125316;1099;65252;-80
2020/12/06 07:06:40;;;;;;;33.80;26.40;;;;;;;5.37;84.38;98452.95;125222;1098;65249;-80
2020/12/06 07:09:07;;;;;;;32.73;22.57;;;;;;;5.41;84.26;98444.78;125218;1099;65120;-80
2020/12/06 07:11:34;;;;;;;29.03;23.07;;;;;;;5.47;84.25;98448.88;124886;1100;65358;-80
2020/12/06 07:14:03;;;;;;;30.30;22.50;;;;;;;5.50;83.82;98439.00;125228;1098;65150;-80
2020/12/06 07:16:30;;;;;;;33.58;23.87;;;;;;;5.54;84.06;98454.69;125301;1098;65137;-79
2020/12/06 07:18:56;;;;;;;30.70;22.87;;;;;;;5.56;84.29;98448.38;125273;1098;65175;-80
2020/12/06 07:21:22;;;;;;;28.97;21.30;;;;;;;5.58;83.80;98446.52;124949;1098;65296;-80
2020/12/06 07:23:50;;;;;;;27.40;21.55;;;;;;;5.60;84.00;98444.61;125273;1098;65284;-80
2020/12/06 07:26:16;;;;;;;29.40;23.57;;;;;;;5.63;83.61;98449.72;124857;1100;65165;-80
2020/12/06 07:28:42;;;;;;;31.93;23.63;;;;;;;5.67;83.62;98443.34;125268;1098;65201;-80
2020/12/06 07:31:11;;;;;;;28.73;21.87;;;;;;;5.71;83.98;98436.08;125269;1098;65561;-80
2020/12/06 07:33:37;;;;;;;32.50;23.73;;;;;;;5.74;83.55;98428.00;125364;1098;65166;-80
2020/12/06 07:36:03;;;;;;;32.05;24.35;;;;;;;5.78;83.47;98426.88;125280;1098;65236;-80
2020/12/06 07:38:37;;;;;;;29.90;21.70;;;;;;;5.80;83.54;98424.16;125243;1098;65342;-80
2020/12/06 07:41:04;;;;;;;32.53;24.33;;;;;;;5.81;83.51;98437.27;125284;1099;65255;-80
2020/12/06 07:43:32;;;;;;;30.15;23.85;;;;;;;5.82;83.15;98423.13;125267;1098;65162;-81
2020/12/06 07:46:15;;;;;;;35.10;26.23;;;;;;;5.81;83.09;98431.98;125190;1098;65156;-81
2020/12/06 07:48:43;;;;;;;36.93;26.30;;;;;;;5.79;82.92;98441.78;125283;1098;65130;-81
2020/12/06 07:51:09;;;;;;;37.70;27.85;;;;;;;5.77;82.96;98438.40;125230;1098;65166;-78
2020/12/06 07:53:49;;;;;;;42.73;30.90;;;;;;;5.72;83.04;98438.65;124818;1100;65137;-78
2020/12/06 07:56:18;;;;;;;40.33;30.53;;;;;;;5.71;82.86;98442.25;125247;1098;65232;-79
2020/12/06 07:58:52;;;;;;;36.48;27.10;;;;;;;5.72;83.01;98433.36;125262;1098;65070;-80
2020/12/06 08:01:19;;;;;;;39.43;27.23;;;;;;;5.75;83.18;98436.78;125165;1099;65128;-80
2020/12/06 08:03:49;;;;;;;36.03;27.03;;;;;;;5.79;82.92;98447.08;125154;1098;65320;-79
2020/12/06 08:06:17;;;;;;;36.23;27.47;;;;;;;5.81;83.21;98442.56;125152;1098;65191;-79
2020/12/06 08:08:48;;;;;;;35.93;27.20;;;;;;;5.86;83.15;98447.59;125243;1098;65221;-79
2020/12/06 08:11:17;;;;;;;34.47;26.07;;;;;;;5.88;83.08;98449.22;125311;1098;65160;-80
2020/12/06 08:13:49;;;;;;;34.07;25.07;;;;;;;5.93;83.06;98454.25;125203;1098;65133;-80
2020/12/06 08:16:17;;;;;;;32.93;25.73;;;;;;;5.98;82.97;98467.23;125226;1098;65415;-80
2020/12/06 08:18:44;;;;;;;32.03;25.27;;;;;;;6.02;82.99;98453.75;125214;1099;65681;-79
2020/12/06 08:21:11;;;;;;;33.63;24.77;;;;;;;6.06;82.71;98446.51;125099;1100;65160;-79
2020/12/06 08:23:40;;;;;;;31.43;25.73;;;;;;;6.08;82.58;98441.95;125181;1098;65136;-80
2020/12/06 08:26:07;;;;;;;37.77;27.37;;;;;;;6.09;82.68;98443.68;125178;1098;65255;-81
2020/12/06 08:28:34;;;;;;;36.47;27.40;;;;;;;6.06;82.69;98446.51;124810;1099;65147;-81
2020/12/06 08:31:00;;;;;;;34.10;25.37;;;;;;;6.05;82.16;98466.79;124802;1099;65262;-80
2020/12/06 08:33:28;;;;;;;32.80;26.75;;;;;;;6.06;82.53;98454.45;125171;1098;65201;-81
2020/12/06 08:36:01;;;;;;;32.83;26.00;;;;;;;6.07;82.66;98445.55;125173;1098;65120;-81
2020/12/06 08:38:31;;;;;;;35.43;26.40;;;;;;;6.09;82.68;98447.17;125239;1098;65275;-80
2020/12/06 08:41:06;;;;;;;35.97;28.10;;;;;;;6.10;82.47;98445.38;125319;1098;65149;-80
2020/12/06 08:43:47;;;;;;;35.23;27.20;;;;;;;6.13;82.47;98450.48;125323;1098;65179;-81
2020/12/06 08:46:24;;;;;;;35.50;27.10;;;;;;;6.18;82.51;98455.52;125258;1098;65239;-81
2020/12/06 08:48:53;;;;;;;34.30;26.47;;;;;;;6.23;82.16;98446.37;125256;1098;65151;-80
2020/12/06 08:51:27;;;;;;;34.27;26.80;;;;;;;6.28;82.40;98456.70;125459;1098;65217;-86
2020/12/06 08:53:54;;;;;;;39.65;27.95;;;;;;;6.34;82.08;98441.30;125359;1100;65178;-83
2020/12/06 08:56:33;;;;;;;41.70;31.30;;;;;;;6.36;81.92;98446.52;125343;1098;65192;-86
2020/12/06 08:59:03;;;;;;;41.42;31.70;;;;;;;6.36;81.87;98447.36;125539;1098;65163;-84
2020/12/06 09:01:30;;;;;;;38.60;30.70;;;;;;;6.38;81.76;98445.48;125462;1099;65269;-89
2020/12/06 09:03:57;;;;;;;41.73;30.67;;;;;;;6.39;81.93;98441.03;124858;1100;65175;-90
2020/12/06 09:06:24;;;;;;;35.17;27.40;;;;;;;6.40;82.01;98432.17;124986;1100;65166;-90
2020/12/06 09:08:51;;;;;;;39.87;28.57;;;;;;;6.43;81.63;98428.48;124961;1100;65184;-90
2020/12/06 09:11:21;;;;;;;37.93;29.63;;;;;;;6.47;81.80;98429.99;125003;1100;65272;-88
2020/12/06 09:13:48;;;;;;;37.50;29.80;;;;;;;6.50;82.10;98419.22;125385;1098;65233;-87
2020/12/06 09:16:15;;;;;;;36.43;26.77;;;;;;;6.53;81.63;98413.73;124985;1100;65230;-90
2020/12/06 09:18:43;;;;;;;35.57;26.57;;;;;;;6.58;81.83;98420.48;124981;1100;65149;-87
2020/12/06 09:21:09;;;;;;;33.53;24.93;;;;;;;6.67;81.99;98420.88;125445;1098;65123;-86
2020/12/06 09:23:36;;;;;;;28.97;23.73;;;;;;;6.77;81.92;98429.97;125371;1098;65146;-84
2020/12/06 09:26:06;;;;;;;31.70;22.23;;;;;;;6.91;81.25;98429.13;125032;1100;65291;-87
2020/12/06 09:28:33;;;;;;;31.50;24.40;;;;;;;6.97;81.11;98423.44;125153;1098;65150;-84
2020/12/06 09:31:00;;;;;;;32.75;24.20;;;;;;;7.01;80.80;98425.81;124919;1098;65199;-85
2020/12/06 09:33:27;;;;;;;33.03;23.63;;;;;;;7.04;80.64;98419.48;124949;1100;65169;-87
2020/12/06 09:35:54;;;;;;;35.57;26.17;;;;;;;7.06;80.79;98406.99;125083;1098;65140;-93
2020/12/06 09:38:21;;;;;;;31.40;24.73;;;;;;;7.12;80.47;98411.90;125072;1100;65124;-89
2020/12/06 09:40:48;;;;;;;32.33;24.30;;;;;;;7.18;80.54;98410.66;125505;1098;65191;-88
2020/12/06 09:43:15;;;;;;;32.80;26.63;;;;;;;7.26;80.86;98411.88;125021;1100;65249;-90
2020/12/06 09:45:42;;;;;;;39.05;26.90;;;;;;;7.33;80.50;98401.75;124951;1098;65213;-88
2020/12/06 09:48:44;;;;;;;32.70;25.30;;;;;;;7.36;80.12;98393.61;125717;1099;65259;-96
2020/12/06 09:51:11;;;;;;;28.87;22.83;;;;;;;7.39;80.10;98396.05;125708;1098;65166;-87
2020/12/06 09:53:38;;;;;;;31.50;25.93;;;;;;;7.46;80.08;98399.18;125324;1098;65294;-90
2020/12/06 09:56:05;;;;;;;30.57;23.80;;;;;;;7.53;80.28;98384.59;124922;1100;65201;-90
2020/12/06 09:58:31;;;;;;;36.10;26.15;;;;;;;7.65;80.02;98396.19;125268;1099;65259;-78
2020/12/06 10:00:58;;;;;;;41.40;30.70;;;;;;;7.72;80.19;98389.55;125195;1098;65134;-81
2020/12/06 10:03:24;;;;;;;33.40;26.57;;;;;;;7.80;79.98;98373.98;125197;1098;65200;-80
2020/12/06 10:05:51;;;;;;;36.17;28.57;;;;;;;7.84;79.50;98364.86;125187;1098;65121;-80
2020/12/06 10:08:18;;;;;;;32.53;26.33;;;;;;;7.92;79.82;98372.31;125118;1098;65291;-79
2020/12/06 10:10:44;;;;;;;36.67;26.43;;;;;;;7.97;79.80;98375.52;125110;1098;65195;-79
2020/12/06 10:13:11;;;;;;;35.27;27.37;;;;;;;8.03;79.70;98368.94;125171;1098;65639;-79
2020/12/06 10:15:39;;;;;;;36.33;28.13;;;;;;;8.07;79.73;98373.95;124887;1100;65255;-79
2020/12/06 10:18:06;;;;;;;34.30;27.15;;;;;;;8.12;79.32;98371.00;125218;1098;65153;-79
2020/12/06 10:20:32;;;;;;;35.50;25.43;;;;;;;8.13;79.34;98352.30;125167;1098;65138;-79
2020/12/06 10:22:59;;;;;;;31.53;24.03;;;;;;;8.19;79.42;98358.15;125152;1099;65610;-79
2020/12/06 10:25:25;;;;;;;31.10;22.23;;;;;;;8.24;78.76;98353.38;124791;1099;65137;-80
2020/12/06 10:27:51;;;;;;;28.00;22.75;;;;;;;8.31;79.01;98346.71;125201;1099;65201;-79
2020/12/06 10:30:18;;;;;;;32.23;23.83;;;;;;;8.33;78.83;98336.84;125156;1098;65217;-79
2020/12/06 10:32:44;;;;;;;33.07;24.60;;;;;;;8.31;78.83;98338.75;125156;1098;65262;-79
2020/12/06 10:35:11;;;;;;;31.13;24.63;;;;;;;8.28;79.35;98331.84;125253;1099;65230;-79
2020/12/06 10:37:37;;;;;;;32.87;25.23;;;;;;;8.24;78.89;98340.11;125118;1099;65256;-79
2020/12/06 10:40:04;;;;;;;32.13;23.57;;;;;;;8.19;78.88;98339.57;125191;1098;65153;-79
2020/12/06 10:42:30;;;;;;;31.30;23.65;;;;;;;8.16;78.92;98337.13;125230;1098;65194;-79
2020/12/06 10:44:56;;;;;;;29.93;25.03;;;;;;;8.13;78.81;98320.45;125150;1098;65252;-79
2020/12/06 10:47:23;;;;;;;30.07;24.90;;;;;;;8.11;78.65;98313.58;124787;1099;65191;-79
2020/12/06 10:49:49;;;;;;;32.97;24.17;;;;;;;8.09;79.05;98318.13;125236;1098;65137;-79
2020/12/06 10:52:16;;;;;;;31.60;25.47;;;;;;;8.07;78.66;98314.73;125173;1098;65191;-80
2020/12/06 10:54:42;;;;;;;36.70;25.40;;;;;;;8.07;79.02;98318.22;125157;1098;65140;-80
2020/12/06 10:57:09;;;;;;;33.55;25.23;;;;;;;8.07;79.00;98320.03;125127;1098;65319;-80
2020/12/06 10:59:35;;;;;;;30.23;23.37;;;;;;;8.09;79.14;98311.02;125146;1098;65187;-80
2020/12/06 11:02:03;;;;;;;33.93;25.50;;;;;;;8.16;79.28;98302.63;125206;1098;65117;-80
2020/12/06 11:04:30;;;;;;;34.03;25.33;;;;;;;8.24;78.57;98300.30;125260;1099;65637;-80
2020/12/06 11:06:58;;;;;;;33.40;25.53;;;;;;;8.34;78.42;98298.70;125179;1098;65249;-78
2020/12/06 11:09:26;;;;;;;32.70;25.03;;;;;;;8.43;78.99;98303.44;124836;1098;65147;-80
2020/12/06 11:11:52;;;;;;;28.63;22.83;;;;;;;8.50;78.78;98295.88;125211;1098;65220;-78
2020/12/06 11:14:19;;;;;;;29.33;22.07;;;;;;;8.53;78.47;98300.97;125178;1098;65144;-80
2020/12/06 11:16:49;;;;;;;32.17;24.43;;;;;;;8.55;78.17;98294.59;125175;1098;65235;-79
2020/12/06 11:19:15;;;;;;;31.73;23.43;;;;;;;8.62;78.32;98292.38;125271;1098;65217;-81
2020/12/06 11:21:42;;;;;;;33.70;24.43;;;;;;;8.67;78.13;98290.24;125198;1098;65252;-82